Time;durP1;ratioP1;P1;durP2;ratioP2;P2;SDS_P1;SDS_P2;PMS_P1;PMS_P2;Temp;Humidity;BMP_temperature;BMP_pressure;BME280_temperature;BME280_humidity;BME280_pressure;Samples;Min_cycle;Max_cycle;Signal;HPM_P1;HPM_P2
2022/09/30 00:00:38;;;;;;;17.45;10.95;;;;;;;13.37;100.00;98703.13;1713874;83;21455;-70
2022/09/30 00:03:05;;;;;;;20.12;11.22;;;;;;;13.39;100.00;98694.51;1713559;83;21717;-71
2022/09/30 00:05:33;;;;;;;16.85;12.53;;;;;;;13.38;100.00;98700.59;1713640;83;21427;-70
2022/09/30 00:08:00;;;;;;;15.70;11.00;;;;;;;13.37;100.00;98699.00;1713659;83;20957;-71
2022/09/30 00:10:28;;;;;;;15.68;10.98;;;;;;;13.36;100.00;98692.45;1713664;83;21540;-71
2022/09/30 00:12:57;;;;;;;19.70;12.43;;;;;;;13.36;100.00;98693.84;1713644;83;20952;-71
2022/09/30 00:15:24;;;;;;;18.75;11.75;;;;;;;13.33;100.00;98701.44;1713830;83;21173;-71
2022/09/30 00:17:52;;;;;;;22.00;12.90;;;;;;;13.33;100.00;98699.48;1700994;83;21658;-71
2022/09/30 00:20:20;;;;;;;18.50;11.85;;;;;;;13.33;100.00;98705.58;1697363;84;21484;-70
2022/09/30 00:22:47;;;;;;;18.57;11.73;;;;;;;13.34;100.00;98706.59;1697760;84;21531;-71
2022/09/30 00:25:15;;;;;;;22.00;12.35;;;;;;;13.34;100.00;98702.46;1697386;84;21008;-70
2022/09/30 00:27:42;;;;;;;20.15;12.37;;;;;;;13.34;100.00;98703.04;1697446;84;21279;-70
2022/09/30 00:30:10;;;;;;;16.40;11.45;;;;;;;13.31;100.00;98700.98;1697567;84;20929;-70
2022/09/30 00:32:37;;;;;;;15.63;10.88;;;;;;;13.29;100.00;98699.16;1697407;84;20882;-72
2022/09/30 00:35:05;;;;;;;17.02;11.43;;;;;;;13.28;100.00;98704.48;1697744;84;20989;-72
2022/09/30 00:37:32;;;;;;;19.05;11.60;;;;;;;13.26;100.00;98705.42;1697441;84;21044;-72
2022/09/30 00:40:01;;;;;;;16.35;10.85;;;;;;;13.24;100.00;98703.59;1697480;84;20890;-72
2022/09/30 00:42:29;;;;;;;14.98;11.50;;;;;;;13.23;100.00;98700.61;1697416;84;21485;-72
2022/09/30 00:45:05;;;;;;;13.15;10.28;;;;;;;13.19;100.00;98695.80;1697751;84;21051;-70
2022/09/30 00:47:59;;;;;;;15.05;10.45;;;;;;;13.17;100.00;98700.87;1697622;84;21221;-71
2022/09/30 00:50:47;;;;;;;11.15;9.75;;;;;;;13.14;100.00;98705.67;1692089;84;20945;-71
2022/09/30 00:53:37;;;;;;;21.12;10.70;;;;;;;13.13;100.00;98706.83;1697424;84;21814;-71
2022/09/30 00:56:13;;;;;;;17.12;10.75;;;;;;;13.11;100.00;98710.52;1697445;84;20953;-75
2022/09/30 00:58:49;;;;;;;17.15;10.25;;;;;;;13.10;100.00;98704.78;1673323;84;20945;-75
2022/09/30 01:01:16;;;;;;;15.03;10.23;;;;;;;13.08;100.00;98702.95;1697699;84;21544;-72
2022/09/30 01:03:57;;;;;;;15.65;9.95;;;;;;;13.04;100.00;98704.81;1697408;84;20897;-72
2022/09/30 01:06:24;;;;;;;17.75;9.38;;;;;;;12.99;100.00;98709.20;1695645;83;21290;-72
2022/09/30 01:08:52;;;;;;;15.30;9.40;;;;;;;12.95;100.00;98711.63;1683144;84;20911;-72
2022/09/30 01:11:19;;;;;;;16.90;10.15;;;;;;;12.91;100.00;98719.79;1669629;86;20960;-71
2022/09/30 01:13:50;;;;;;;13.50;9.18;;;;;;;12.89;100.00;98726.23;1669187;86;21529;-72
2022/09/30 01:16:28;;;;;;;17.45;9.53;;;;;;;12.83;100.00;98726.25;1669374;85;21648;-70
2022/09/30 01:19:07;;;;;;;16.60;10.00;;;;;;;12.78;100.00;98728.67;1684846;85;21203;-71
2022/09/30 01:22:00;;;;;;;11.55;9.45;;;;;;;12.75;100.00;98719.73;1683616;85;21530;-76
2022/09/30 01:25:08;;;;;;;16.30;9.48;;;;;;;12.69;100.00;98721.16;1678167;85;20956;-71
2022/09/30 01:28:17;;;;;;;15.10;9.40;;;;;;;12.67;100.00;98719.91;1684634;85;21055;-71
2022/09/30 01:31:10;;;;;;;17.80;9.20;;;;;;;12.64;100.00;98718.66;1664962;85;21056;-71
2022/09/30 01:34:20;;;;;;;13.72;8.93;;;;;;;12.61;100.00;98722.11;1684828;85;21895;-71
2022/09/30 01:37:28;;;;;;;14.50;8.85;;;;;;;12.58;100.00;98726.13;1649221;82;20947;-71
2022/09/30 01:40:09;;;;;;;14.03;9.33;;;;;;;12.52;100.00;98729.70;1697251;83;20915;-72
2022/09/30 01:43:12;;;;;;;16.43;8.63;;;;;;;12.47;100.00;98729.37;1685156;85;20950;-71
2022/09/30 01:45:57;;;;;;;12.20;8.53;;;;;;;12.43;100.00;98729.84;1684858;85;20915;-71
2022/09/30 01:48:30;;;;;;;13.30;8.48;;;;;;;12.39;100.00;98733.05;1685067;85;21749;-73
2022/09/30 01:51:02;;;;;;;14.63;7.55;;;;;;;12.31;100.00;98738.11;1682787;85;20875;-73
2022/09/30 01:53:56;;;;;;;13.27;8.30;;;;;;;12.23;100.00;98742.59;1685200;85;21422;-73
2022/09/30 01:56:43;;;;;;;18.70;8.38;;;;;;;12.17;100.00;98742.60;1684661;85;20978;-73
2022/09/30 01:59:39;;;;;;;12.10;7.90;;;;;;;12.12;100.00;98747.56;1684685;85;20903;-72
2022/09/30 02:02:10;;;;;;;14.85;7.87;;;;;;;12.03;100.00;98746.88;1684684;85;21913;-71
2022/09/30 02:04:44;;;;;;;14.75;8.15;;;;;;;11.97;100.00;98751.00;1685024;85;20907;-71
2022/09/30 02:07:16;;;;;;;14.75;8.85;;;;;;;11.95;100.00;98750.55;1684726;85;21470;-71
2022/09/30 02:09:57;;;;;;;11.53;8.98;;;;;;;11.94;100.00;98757.19;1682656;85;20966;-71
2022/09/30 02:12:27;;;;;;;16.97;8.90;;;;;;;11.94;100.00;98759.37;1684780;85;20939;-71
2022/09/30 02:15:01;;;;;;;11.97;7.87;;;;;;;11.93;100.00;98755.59;1684885;85;21027;-71
2022/09/30 02:17:36;;;;;;;13.15;7.83;;;;;;;11.87;100.00;98753.64;1678224;85;20935;-70
2022/09/30 02:20:07;;;;;;;13.48;8.53;;;;;;;11.82;100.00;98754.66;1668853;86;20990;-71
2022/09/30 02:22:42;;;;;;;11.90;8.45;;;;;;;11.78;100.00;98742.75;1669272;86;20958;-71
2022/09/30 02:25:11;;;;;;;12.55;8.08;;;;;;;11.72;100.00;98742.70;1669765;86;21507;-70
2022/09/30 02:27:41;;;;;;;14.10;8.38;;;;;;;11.67;100.00;98752.55;1666881;86;21167;-71
2022/09/30 02:30:09;;;;;;;11.93;7.75;;;;;;;11.64;100.00;98752.44;1669383;86;20904;-71
2022/09/30 02:32:44;;;;;;;12.47;8.35;;;;;;;11.58;100.00;98755.41;1669407;86;20943;-71
2022/09/30 02:35:22;;;;;;;9.75;7.03;;;;;;;11.54;100.00;98757.27;1669008;86;20923;-71
2022/09/30 02:37:57;;;;;;;12.33;7.12;;;;;;;11.50;100.00;98758.28;1643459;86;21470;-71
2022/09/30 02:40:29;;;;;;;14.60;7.05;;;;;;;11.43;100.00;98760.22;1669397;86;21244;-70
2022/09/30 02:42:56;;;;;;;;;;;;;;;11.37;100.00;98771.77;1671694;86;20983;-70
2022/09/30 02:45:23;;;;;;;16.82;8.08;;;;;;;11.37;100.00;98774.52;1669432;86;20472;-71
2022/09/30 02:48:26;;;;;;;13.10;8.35;;;;;;;11.39;100.00;98777.16;1669463;86;21015;-73
2022/09/30 02:51:05;;;;;;;10.60;7.72;;;;;;;11.36;100.00;98779.20;1669454;86;20955;-74
2022/09/30 02:53:40;;;;;;;12.90;9.70;;;;;;;11.32;100.00;98774.72;1669053;86;21252;-74
2022/09/30 02:56:30;;;;;;;15.53;8.88;;;;;;;11.33;100.00;98768.09;1669368;86;21069;-72
2022/09/30 02:58:57;;;;;;;13.43;8.45;;;;;;;11.32;100.00;98769.23;1669458;86;20943;-73
2022/09/30 03:01:24;;;;;;;15.30;9.10;;;;;;;11.28;100.00;98772.42;1669257;86;21066;-71
2022/09/30 03:03:57;;;;;;;19.07;10.35;;;;;;;11.29;100.00;98776.20;1669651;86;21435;-71
2022/09/30 03:06:23;;;;;;;20.52;10.15;;;;;;;11.35;100.00;98770.73;1669091;86;21582;-71
2022/09/30 03:08:52;;;;;;;13.20;9.95;;;;;;;11.50;100.00;98776.95;1669357;86;20871;-68
2022/09/30 03:11:24;;;;;;;16.35;9.58;;;;;;;11.58;100.00;98771.90;1669208;86;20907;-73
2022/09/30 03:14:14;;;;;;;14.07;9.55;;;;;;;11.57;100.00;98775.80;1668938;85;21059;-72
2022/09/30 03:17:09;;;;;;;13.62;7.60;;;;;;;11.50;100.00;98768.70;1669029;86;20956;-73
2022/09/30 03:20:02;;;;;;;16.82;8.50;;;;;;;11.40;100.00;98768.33;1669141;86;21534;-71
2022/09/30 03:23:17;;;;;;;13.70;7.67;;;;;;;11.30;100.00;98768.19;1665393;86;21035;-70
2022/09/30 03:26:08;;;;;;;12.33;7.95;;;;;;;11.19;100.00;98770.56;1669098;85;21583;-78
2022/09/30 03:28:44;;;;;;;12.50;7.90;;;;;;;11.05;100.00;98771.42;1693926;84;21056;-71
2022/09/30 03:31:22;;;;;;;11.50;7.95;;;;;;;10.97;100.00;98779.20;1693033;84;20939;-71
2022/09/30 03:34:06;;;;;;;21.57;7.28;;;;;;;10.90;100.00;98778.94;1693675;84;21054;-71
2022/09/30 03:37:05;;;;;;;14.30;7.35;;;;;;;10.87;100.00;98787.27;1693284;84;20912;-72
2022/09/30 03:39:40;;;;;;;15.13;7.08;;;;;;;10.93;100.00;98796.11;1694475;84;20948;-80
2022/09/30 03:42:36;;;;;;;14.78;7.85;;;;;;;11.00;100.00;98811.45;1693313;84;21570;-84
2022/09/30 03:45:19;;;;;;;13.78;7.95;;;;;;;10.99;100.00;98805.72;1694561;84;21282;-79
2022/09/30 03:47:50;;;;;;;16.17;7.85;;;;;;;10.95;100.00;98813.06;1665435;84;22301;-76
2022/09/30 03:50:20;;;;;;;18.25;8.80;;;;;;;10.89;100.00;98811.66;1693815;84;20988;-78
2022/09/30 03:52:47;;;;;;;14.70;7.37;;;;;;;10.82;100.00;98811.38;1668546;84;20956;-83
2022/09/30 03:55:14;;;;;;;15.95;7.87;;;;;;;10.76;100.00;98808.61;1694569;84;21015;-77
2022/09/30 03:57:43;;;;;;;11.63;7.92;;;;;;;10.75;100.00;98818.78;1694437;84;21443;-71
2022/09/30 04:00:11;;;;;;;14.18;8.10;;;;;;;10.75;100.00;98813.86;1693491;84;21797;-72
2022/09/30 04:02:40;;;;;;;20.90;9.00;;;;;;;10.73;100.00;98810.64;1694071;84;20916;-72
2022/09/30 04:05:08;;;;;;;22.98;8.35;;;;;;;10.68;100.00;98813.02;1694207;84;20980;-75
2022/09/30 04:07:35;;;;;;;15.75;10.18;;;;;;;10.66;100.00;98819.98;1694372;84;20995;-77
2022/09/30 04:10:02;;;;;;;30.60;9.38;;;;;;;10.66;100.00;98822.72;1694443;84;20860;-73
2022/09/30 04:12:30;;;;;;;25.62;9.85;;;;;;;10.66;100.00;98818.61;1694426;84;20900;-73
2022/09/30 04:14:57;;;;;;;18.25;9.35;;;;;;;10.66;100.00;98821.35;1694231;84;21515;-74
2022/09/30 04:17:24;;;;;;;26.23;10.23;;;;;;;10.66;100.00;98818.61;1695498;84;21345;-73
2022/09/30 04:19:51;;;;;;;16.65;8.83;;;;;;;10.71;100.00;98819.21;1681105;85;20915;-73
2022/09/30 04:22:18;;;;;;;21.57;9.18;;;;;;;10.76;100.00;98820.39;1681026;85;21454;-76
2022/09/30 04:24:46;;;;;;;24.63;9.53;;;;;;;10.80;100.00;98821.33;1681051;85;21135;-73
2022/09/30 04:27:12;;;;;;;18.90;9.95;;;;;;;10.88;100.00;98825.95;1680958;85;20998;-73
2022/09/30 04:29:39;;;;;;;21.80;10.75;;;;;;;11.00;100.00;98825.75;1681011;85;20865;-76
2022/09/30 04:32:07;;;;;;;30.48;11.10;;;;;;;11.11;100.00;98826.95;1681086;85;20971;-77
2022/09/30 04:34:34;;;;;;;18.27;10.25;;;;;;;11.22;100.00;98828.15;1681008;85;20927;-78
2022/09/30 04:37:00;;;;;;;21.95;9.83;;;;;;;11.31;100.00;98832.19;1681052;85;21070;-83
2022/09/30 04:39:27;;;;;;;23.35;11.28;;;;;;;11.41;100.00;98834.52;1681184;85;21027;-78
2022/09/30 04:41:54;;;;;;;27.50;11.88;;;;;;;11.50;100.00;98833.87;1681004;85;21051;-79
2022/09/30 04:44:22;;;;;;;24.40;11.48;;;;;;;11.59;100.00;98831.80;1680995;85;21435;-76
2022/09/30 04:46:49;;;;;;;25.40;12.63;;;;;;;11.67;100.00;98835.61;1681397;85;20912;-76
2022/09/30 04:49:16;;;;;;;28.85;11.43;;;;;;;11.76;100.00;98841.24;1681052;85;21127;-75
2022/09/30 04:51:44;;;;;;;33.30;11.83;;;;;;;11.83;100.00;98844.27;1680938;85;20936;-80
2022/09/30 04:54:12;;;;;;;33.65;11.93;;;;;;;11.90;100.00;98846.45;1681035;85;21491;-83
2022/09/30 04:56:38;;;;;;;22.95;12.63;;;;;;;11.98;100.00;98853.00;1648624;86;20927;-76
2022/09/30 04:59:05;;;;;;;18.50;11.28;;;;;;;12.03;100.00;98863.79;1681048;85;21055;-74
2022/09/30 05:01:32;;;;;;;24.25;12.47;;;;;;;12.08;100.00;98860.24;1681225;85;21459;-75
2022/09/30 05:04:00;;;;;;;25.82;12.85;;;;;;;12.12;100.00;98864.49;1680977;85;20969;-80
2022/09/30 05:06:27;;;;;;;38.53;15.85;;;;;;;12.18;100.00;98872.72;1680798;85;20963;-84
2022/09/30 05:08:55;;;;;;;35.92;17.40;;;;;;;12.23;100.00;98880.75;1678190;85;20995;-86
2022/09/30 05:11:21;;;;;;;42.50;20.43;;;;;;;12.30;100.00;98883.74;1681000;85;20903;-81
2022/09/30 05:13:49;;;;;;;70.67;22.42;;;;;;;12.37;100.00;98891.43;1681042;85;21609;-83
2022/09/30 05:16:16;;;;;;;58.60;18.48;;;;;;;12.44;100.00;98900.73;1681161;85;21566;-85
2022/09/30 05:18:48;;;;;;;50.43;16.10;;;;;;;12.52;100.00;98903.94;1677297;84;21032;-81
2022/09/30 05:21:17;;;;;;;52.33;15.55;;;;;;;12.58;100.00;98903.72;1703639;83;21518;-76
2022/09/30 05:23:43;;;;;;;48.75;15.63;;;;;;;12.62;100.00;98908.77;1709489;84;21517;-76
2022/09/30 05:26:10;;;;;;;52.78;14.50;;;;;;;12.66;100.00;98911.05;1704074;84;21137;-77
2022/09/30 05:28:37;;;;;;;39.18;14.53;;;;;;;12.69;100.00;98907.61;1709474;84;20982;-78
2022/09/30 05:31:05;;;;;;;29.42;14.60;;;;;;;12.72;100.00;98902.77;1704407;84;21026;-77
2022/09/30 05:33:32;;;;;;;30.27;14.68;;;;;;;12.75;100.00;98902.87;1709495;84;20987;-75
2022/09/30 05:36:02;;;;;;;42.98;18.37;;;;;;;12.79;100.00;98896.91;1703966;84;20935;-84
2022/09/30 05:38:29;;;;;;;49.90;22.98;;;;;;;12.84;100.00;98902.75;1703628;84;21801;-80
2022/09/30 05:40:56;;;;;;;46.00;23.27;;;;;;;12.88;100.00;98910.55;1703780;84;20971;-81
2022/09/30 05:43:23;;;;;;;46.30;24.25;;;;;;;12.93;100.00;98917.20;1673797;84;20990;-72
2022/09/30 05:45:54;;;;;;;49.77;25.35;;;;;;;12.99;100.00;98923.28;1703933;84;20904;-72
2022/09/30 05:48:22;;;;;;;40.48;17.48;;;;;;;13.03;100.00;98921.45;1703875;84;20928;-73
2022/09/30 05:50:51;;;;;;;31.48;16.23;;;;;;;13.04;100.00;98919.72;1703041;84;21729;-74
2022/09/30 05:53:18;;;;;;;33.08;15.03;;;;;;;13.08;100.00;98915.12;1674763;84;21081;-73
2022/09/30 05:55:46;;;;;;;27.55;14.07;;;;;;;13.12;100.00;98918.79;1708077;84;20995;-73
2022/09/30 05:58:14;;;;;;;29.92;14.13;;;;;;;13.19;100.00;98921.80;1705765;84;20983;-75
2022/09/30 06:00:45;;;;;;;72.27;26.42;;;;;;;13.27;100.00;98922.81;1704831;84;20927;-75
2022/09/30 06:03:14;;;;;;;92.55;35.52;;;;;;;13.36;100.00;98929.53;1700536;84;21578;-74
2022/09/30 06:05:45;;;;;;;52.48;26.23;;;;;;;13.43;100.00;98922.27;1704613;84;20963;-74
2022/09/30 06:08:16;;;;;;;41.80;22.60;;;;;;;13.51;100.00;98924.66;1674120;84;20982;-84
2022/09/30 06:10:50;;;;;;;18.00;13.88;;;;;;;13.58;100.00;98921.31;1704517;84;20990;-77
2022/09/30 06:13:25;;;;;;;18.27;14.53;;;;;;;13.62;100.00;98919.45;1704597;84;20883;-76
2022/09/30 06:16:04;;;;;;;18.17;14.28;;;;;;;13.63;100.00;98916.92;1701430;83;21329;-75
2022/09/30 06:18:33;;;;;;;20.70;13.62;;;;;;;13.68;100.00;98924.95;1701238;84;20952;-76
2022/09/30 06:21:03;;;;;;;30.43;19.65;;;;;;;13.76;100.00;98922.04;1704129;82;20950;-78
2022/09/30 06:23:33;;;;;;;26.85;17.85;;;;;;;13.89;100.00;98919.99;1661249;85;20946;-79
2022/09/30 06:26:04;;;;;;;21.85;16.50;;;;;;;14.02;100.00;98925.68;1676132;84;20872;-74
2022/09/30 06:28:33;;;;;;;19.82;15.03;;;;;;;14.10;100.00;98927.47;1702929;84;21152;-73
2022/09/30 06:31:01;;;;;;;22.05;16.05;;;;;;;14.19;100.00;98931.45;1703350;84;20895;-71
2022/09/30 06:33:30;;;;;;;25.68;15.83;;;;;;;14.29;100.00;98931.50;1702117;84;20994;-74
2022/09/30 06:36:03;;;;;;;19.52;14.80;;;;;;;14.41;100.00;98931.42;1703065;84;20911;-73
2022/09/30 06:38:32;;;;;;;30.32;15.68;;;;;;;14.49;100.00;98932.63;1701418;84;21443;-75
2022/09/30 06:41:07;;;;;;;19.20;14.45;;;;;;;14.55;100.00;98935.92;1702902;84;21800;-73
2022/09/30 06:43:35;;;;;;;21.12;14.03;;;;;;;14.59;100.00;98941.55;1702788;84;20939;-71
2022/09/30 06:46:05;;;;;;;20.57;13.95;;;;;;;14.66;100.00;98948.05;1670206;84;21117;-71
2022/09/30 06:48:37;;;;;;;17.17;14.38;;;;;;;14.76;100.00;98943.94;1647090;87;21009;-77
2022/09/30 06:51:03;;;;;;;22.58;14.30;;;;;;;14.93;100.00;98942.77;1673524;85;21062;-76
2022/09/30 06:53:33;;;;;;;24.52;14.93;;;;;;;15.14;100.00;98945.42;1674635;85;21132;-77
2022/09/30 06:56:07;;;;;;;20.85;14.63;;;;;;;15.45;100.00;98952.02;1674421;85;20987;-74
2022/09/30 06:58:34;;;;;;;18.10;13.72;;;;;;;15.87;100.00;98950.73;1674123;85;21521;-87
2022/09/30 07:01:04;;;;;;;17.98;13.08;;;;;;;16.37;100.00;98944.73;1674684;85;21046;-90
2022/09/30 07:03:34;;;;;;;18.57;13.60;;;;;;;16.81;100.00;98952.02;1674956;85;20876;-85
2022/09/30 07:06:09;;;;;;;17.32;12.18;;;;;;;17.13;100.00;98950.55;1674948;85;21228;-84
2022/09/30 07:08:37;;;;;;;19.35;11.80;;;;;;;17.34;100.00;98956.16;1674834;85;21010;-85
2022/09/30 07:11:13;;;;;;;12.95;10.45;;;;;;;17.53;100.00;98956.63;1674951;85;21054;-88
2022/09/30 07:13:48;;;;;;;16.45;10.98;;;;;;;17.84;100.00;98960.44;1674943;85;20892;-81
2022/09/30 07:16:18;;;;;;;17.52;10.98;;;;;;;18.22;100.00;98966.80;1675189;85;21517;-75
2022/09/30 07:18:48;;;;;;;17.45;10.03;;;;;;;18.59;100.00;98968.13;1675328;84;21179;-83
2022/09/30 07:21:19;;;;;;;16.20;9.45;;;;;;;18.98;100.00;98972.67;1673600;84;20954;-82
2022/09/30 07:23:49;;;;;;;15.90;10.08;;;;;;;19.35;100.00;98975.30;1705167;84;21486;-78
2022/09/30 07:26:18;;;;;;;12.55;8.78;;;;;;;19.68;100.00;98980.66;1704957;84;20986;-78
2022/09/30 07:28:48;;;;;;;11.38;8.35;;;;;;;19.99;100.00;98976.44;1704897;84;21037;-75
2022/09/30 07:31:23;;;;;;;13.68;8.83;;;;;;;20.36;100.00;98983.09;1710476;83;21534;-75
2022/09/30 07:33:55;;;;;;;12.10;7.85;;;;;;;20.62;100.00;98987.55;1712057;81;20935;-81
2022/09/30 07:36:29;;;;;;;20.17;8.98;;;;;;;20.86;100.00;98989.34;1704973;84;20951;-88
2022/09/30 07:38:59;;;;;;;12.18;7.15;;;;;;;21.15;98.20;98984.56;1704995;84;20990;-84
2022/09/30 07:41:28;;;;;;;13.40;8.03;;;;;;;21.39;91.85;98987.92;1704927;84;20978;-72
2022/09/30 07:44:00;;;;;;;9.63;6.90;;;;;;;21.43;90.34;98987.31;1705058;84;21313;-71
2022/09/30 07:46:30;;;;;;;11.53;8.30;;;;;;;21.42;89.45;98987.92;1704285;84;21030;-70
2022/09/30 07:49:02;;;;;;;10.05;7.70;;;;;;;21.46;88.75;98993.50;1673987;84;20947;-73
2022/09/30 07:51:39;;;;;;;13.80;7.53;;;;;;;21.58;87.09;99000.05;1705180;84;20915;-73
2022/09/30 07:54:15;;;;;;;12.03;8.08;;;;;;;21.70;86.54;99001.02;1701908;82;21014;-77
2022/09/30 07:56:44;;;;;;;9.58;7.60;;;;;;;21.73;84.90;98998.82;1702359;82;21082;-79
2022/09/30 07:59:13;;;;;;;12.50;7.72;;;;;;;21.62;83.25;99002.23;1699465;84;20907;-76
2022/09/30 08:01:41;;;;;;;9.63;7.62;;;;;;;21.55;83.73;98999.46;1699978;82;21160;-84
2022/09/30 08:04:09;;;;;;;9.10;7.83;;;;;;;21.55;83.86;99004.25;1688001;84;21522;-82
2022/09/30 08:06:41;;;;;;;12.53;7.50;;;;;;;21.61;82.52;99009.02;1657818;84;21041;-81
2022/09/30 08:09:15;;;;;;;11.00;7.10;;;;;;;21.64;82.68;99018.00;1682980;84;21144;-84
2022/09/30 08:11:43;;;;;;;10.95;7.62;;;;;;;21.77;81.68;99009.98;1675812;85;21547;-80
2022/09/30 08:14:22;;;;;;;15.78;7.90;;;;;;;21.88;82.35;99018.34;1688942;82;21471;-79
2022/09/30 08:16:57;;;;;;;12.15;7.62;;;;;;;22.10;81.78;99012.07;1696392;82;21613;-82
2022/09/30 08:19:28;;;;;;;8.78;6.67;;;;;;;22.34;80.33;99016.75;1704905;82;21058;-80
2022/09/30 08:21:57;;;;;;;10.75;7.50;;;;;;;22.61;79.93;99012.17;1704362;84;21144;-81
2022/09/30 08:24:29;;;;;;;11.57;7.20;;;;;;;22.86;78.08;99009.24;1666127;84;21159;-86
2022/09/30 08:26:59;;;;;;;12.10;6.37;;;;;;;23.21;76.53;99014.34;1694012;84;20971;-87
2022/09/30 08:29:26;;;;;;;9.35;6.90;;;;;;;23.54;74.61;99009.45;1695559;84;20990;-84
2022/09/30 08:31:53;;;;;;;10.53;6.85;;;;;;;23.79;74.75;99002.16;1695882;84;21041;-83
2022/09/30 08:34:20;;;;;;;14.28;6.87;;;;;;;23.97;72.09;99008.97;1696976;84;21242;-88
2022/09/30 08:36:47;;;;;;;8.95;6.50;;;;;;;23.89;71.46;99006.85;1696994;84;20991;-87
2022/09/30 08:39:15;;;;;;;10.85;8.10;;;;;;;23.99;72.33;99010.14;1697126;84;21546;-73
2022/09/30 08:41:53;;;;;;;9.80;6.90;;;;;;;24.20;70.62;99020.30;1696877;84;20907;-76
2022/09/30 08:44:42;;;;;;;10.40;6.03;;;;;;;24.26;70.18;99018.62;1665848;83;21597;-76
2022/09/30 08:47:29;;;;;;;10.55;6.47;;;;;;;24.33;69.52;99029.75;1691376;84;21154;-76
2022/09/30 08:50:15;;;;;;;13.48;7.15;;;;;;;24.39;68.59;99029.28;1693937;84;21513;-84
2022/09/30 08:52:53;;;;;;;10.58;6.47;;;;;;;24.42;68.23;99026.42;1693877;84;20983;-86
2022/09/30 08:55:26;;;;;;;14.03;7.12;;;;;;;24.52;68.59;99027.50;1693176;84;20919;-83
2022/09/30 08:57:55;;;;;;;14.35;6.83;;;;;;;24.61;67.59;99032.77;1668254;84;20960;-84
2022/09/30 09:00:22;;;;;;;87.82;15.78;;;;;;;24.80;68.88;99030.51;1693448;84;21179;-76
2022/09/30 09:03:00;;;;;;;9.90;6.87;;;;;;;25.10;67.18;99032.45;1694557;84;21007;-89
2022/09/30 09:06:04;;;;;;;13.70;6.60;;;;;;;25.39;65.41;99034.18;1673445;84;20951;-80
2022/09/30 09:08:43;;;;;;;11.20;6.58;;;;;;;25.59;65.01;99032.19;1696486;84;21531;-80
2022/09/30 09:11:26;;;;;;;9.48;6.70;;;;;;;25.80;64.60;99032.44;1695771;84;20990;-83
2022/09/30 09:14:03;;;;;;;11.35;5.72;;;;;;;25.90;63.12;99032.23;1697290;84;21222;-82
2022/09/30 09:16:41;;;;;;;10.32;6.78;;;;;;;25.84;63.66;99028.33;1696786;84;20955;-83
2022/09/30 09:19:11;;;;;;;10.43;6.00;;;;;;;25.77;64.25;99032.69;1671256;84;20959;-78
2022/09/30 09:21:59;;;;;;;10.70;6.45;;;;;;;25.81;62.95;99023.57;1695510;84;21099;-83
2022/09/30 09:24:39;;;;;;;9.10;6.00;;;;;;;25.79;62.31;99030.23;1694241;84;21046;-79
2022/09/30 09:27:20;;;;;;;11.55;6.72;;;;;;;25.70;61.37;99032.81;1697069;84;21231;-80
2022/09/30 09:30:10;;;;;;;398.75;43.45;;;;;;;25.47;62.89;99029.38;1697090;84;21105;-77
2022/09/30 09:32:37;;;;;;;17.62;6.78;;;;;;;25.31;64.13;99028.68;1694006;83;21601;-80
2022/09/30 09:35:25;;;;;;;12.88;6.90;;;;;;;24.93;66.01;99025.25;1695956;84;21007;-79
2022/09/30 09:38:28;;;;;;;9.03;6.10;;;;;;;24.61;66.35;99036.19;1677081;84;21079;-84
2022/09/30 09:41:21;;;;;;;15.63;5.92;;;;;;;24.35;66.72;99039.14;1696958;84;21141;-75
2022/09/30 09:44:00;;;;;;;10.30;6.37;;;;;;;24.05;66.44;99034.30;1692620;84;21003;-72
2022/09/30 09:46:40;;;;;;;11.05;6.22;;;;;;;23.71;66.88;99043.47;1694365;84;20992;-72
2022/09/30 09:49:22;;;;;;;19.30;7.20;;;;;;;23.45;69.35;99051.73;1694353;84;21051;-78
2022/09/30 09:52:33;;;;;;;102.30;14.03;;;;;;;23.24;71.33;99050.71;1694134;84;20940;-78
2022/09/30 09:55:00;;;;;;;68.65;10.68;;;;;;;23.14;72.81;99044.59;1694347;84;21250;-82
2022/09/30 09:57:31;;;;;;;19.35;7.87;;;;;;;23.16;72.77;99043.58;1674759;85;21078;-74
2022/09/30 10:03:04;;;;;;;12.75;6.65;;;;;;;23.18;72.35;99048.77;1681287;85;20924;-72
2022/09/30 10:05:38;;;;;;;14.10;6.65;;;;;;;23.25;73.46;99048.10;1681645;85;21011;-77
2022/09/30 10:08:19;;;;;;;8.95;6.20;;;;;;;23.47;73.09;99047.31;1681198;85;20907;-74
2022/09/30 10:10:54;;;;;;;11.48;6.70;;;;;;;23.62;72.33;99048.00;1681256;85;21015;-75
2022/09/30 10:13:43;;;;;;;13.53;7.25;;;;;;;23.73;70.35;99050.06;1700791;83;20951;-73
2022/09/30 10:16:34;;;;;;;11.38;6.60;;;;;;;23.68;70.08;99048.51;1695399;84;21090;-77
2022/09/30 10:19:04;;;;;;;23.15;7.78;;;;;;;23.66;70.28;99053.77;1655576;85;21055;-87
2022/09/30 10:21:33;;;;;;;10.68;6.28;;;;;;;23.62;70.56;99058.61;1694945;84;21581;-83
2022/09/30 10:24:02;;;;;;;11.85;6.78;;;;;;;23.63;70.66;99064.41;1696555;83;20955;-76
2022/09/30 10:26:31;;;;;;;11.18;7.50;;;;;;;23.63;70.61;99062.20;1662084;84;21395;-73
2022/09/30 10:29:01;;;;;;;1512.45;170.92;;;;;;;23.69;70.07;99059.11;1695138;84;21107;-76
2022/09/30 10:31:35;;;;;;;14.28;8.43;;;;;;;23.78;69.97;99064.23;1681305;85;21017;-76
2022/09/30 10:34:25;;;;;;;13.48;6.17;;;;;;;23.89;69.30;99063.52;1696721;84;21129;-78
2022/09/30 10:36:52;;;;;;;7.28;5.87;;;;;;;24.15;68.30;99067.63;1696349;84;21013;-77
2022/09/30 10:39:34;;;;;;;9.35;5.80;;;;;;;24.48;65.06;99071.64;1696162;84;21281;-78
2022/09/30 10:42:06;;;;;;;8.90;6.15;;;;;;;24.76;63.13;99074.06;1696210;84;20901;-73
2022/09/30 10:44:34;;;;;;;;;;;;;;;25.14;62.85;99064.08;1698263;84;21064;-73
2022/09/30 10:47:01;;;;;;;6.62;5.65;;;;;;;25.48;61.34;99066.09;1691427;84;21051;-74
2022/09/30 10:49:57;;;;;;;28.23;17.40;;;;;;;25.65;60.89;99059.41;1693884;84;20900;-74
2022/09/30 10:52:27;;;;;;;12.93;9.10;;;;;;;25.67;60.03;99063.19;1644979;84;21525;-76
2022/09/30 10:54:59;;;;;;;10.32;6.58;;;;;;;25.32;60.29;99061.78;1693768;84;21030;-80
2022/09/30 10:57:36;;;;;;;7.83;6.00;;;;;;;25.05;61.86;99065.23;1694076;84;21665;-76
2022/09/30 11:00:17;;;;;;;10.40;6.35;;;;;;;24.96;62.22;99069.97;1695026;84;21096;-75
2022/09/30 11:03:04;;;;;;;9.90;6.10;;;;;;;25.11;63.04;99073.36;1696876;84;21063;-74
2022/09/30 11:05:37;;;;;;;14.75;6.58;;;;;;;25.45;61.06;99070.38;1696807;84;20953;-77
2022/09/30 11:08:24;;;;;;;11.40;6.55;;;;;;;25.71;59.84;99081.40;1670712;84;21063;-75
2022/09/30 11:11:13;;;;;;;10.28;6.20;;;;;;;25.88;59.57;99077.47;1678138;85;21604;-90
2022/09/30 11:14:12;;;;;;;10.10;5.25;;;;;;;26.10;59.23;99077.22;1696852;84;21914;-72
2022/09/30 11:17:07;;;;;;;13.70;6.50;;;;;;;26.42;58.57;99069.56;1681657;85;20954;-73
2022/09/30 11:19:48;;;;;;;12.60;5.53;;;;;;;26.61;57.05;99066.52;1681267;85;21074;-73
2022/09/30 11:22:32;;;;;;;6.87;5.57;;;;;;;26.55;55.39;99069.70;1681801;85;20991;-73
2022/09/30 11:24:59;;;;;;;455.75;45.63;;;;;;;26.47;55.90;99072.48;1698212;83;21300;-72
2022/09/30 11:27:43;;;;;;;11.93;5.62;;;;;;;26.47;55.58;99076.09;1713590;83;21095;-73
2022/09/30 11:30:37;;;;;;;18.40;6.40;;;;;;;26.38;54.18;99074.48;1712985;83;20978;-72
2022/09/30 11:33:34;;;;;;;11.22;5.72;;;;;;;25.93;54.62;99075.56;1712809;83;21001;-72
2022/09/30 11:36:27;;;;;;;7.08;4.67;;;;;;;25.51;56.57;99078.50;1694978;83;21107;-72
2022/09/30 11:39:03;;;;;;;22.50;6.08;;;;;;;25.46;56.43;99082.59;1701146;83;21066;-82
2022/09/30 11:41:45;;;;;;;28.45;18.40;;;;;;;25.39;56.43;99085.55;1670623;85;21554;-72
2022/09/30 11:44:35;;;;;;;6.87;5.80;;;;;;;25.47;55.96;99082.77;1680330;85;21592;-75
2022/09/30 11:47:29;;;;;;;8.58;4.95;;;;;;;25.51;55.75;99085.52;1687255;83;21038;-78
2022/09/30 11:50:20;;;;;;;11.28;5.22;;;;;;;25.69;56.45;99086.66;1712920;83;20951;-76
2022/09/30 11:53:01;;;;;;;8.37;5.03;;;;;;;25.84;55.92;99083.77;1674803;83;20903;-76
2022/09/30 11:56:06;;;;;;;40.05;7.33;;;;;;;25.84;55.25;99092.20;1715378;83;21209;-69